sensor_id;sensor_type;location;lat;lon;timestamp;P1;durP1;ratioP1;P2;durP2;ratioP2
54923;SDS011;40825;52.270;20.984;2023-12-28T00:01:35;24.00;;;10.60;;
54923;SDS011;40825;52.270;20.984;2023-12-28T00:04:01;23.20;;;11.80;;
54923;SDS011;40825;52.270;20.984;2023-12-28T00:06:26;24.80;;;11.00;;
54923;SDS011;40825;52.270;20.984;2023-12-28T00:08:51;30.70;;;12.10;;
54923;SDS011;40825;52.270;20.984;2023-12-28T00:11:17;27.70;;;12.50;;
54923;SDS011;40825;52.270;20.984;2023-12-28T00:13:42;25.70;;;10.50;;
54923;SDS011;40825;52.270;20.984;2023-12-28T00:16:08;29.90;;;10.60;;
54923;SDS011;40825;52.270;20.984;2023-12-28T00:18:33;30.00;;;12.00;;
54923;SDS011;40825;52.270;20.984;2023-12-28T00:20:59;28.00;;;11.70;;
54923;SDS011;40825;52.270;20.984;2023-12-28T00:23:24;29.30;;;12.40;;
54923;SDS011;40825;52.270;20.984;2023-12-28T00:25:50;29.40;;;12.20;;
54923;SDS011;40825;52.270;20.984;2023-12-28T00:28:15;29.00;;;12.30;;
54923;SDS011;40825;52.270;20.984;2023-12-28T00:30:41;27.90;;;12.30;;
54923;SDS011;40825;52.270;20.984;2023-12-28T00:33:06;30.40;;;13.80;;
54923;SDS011;40825;52.270;20.984;2023-12-28T00:35:32;34.70;;;13.30;;
54923;SDS011;40825;52.270;20.984;2023-12-28T00:37:57;27.50;;;13.00;;
54923;SDS011;40825;52.270;20.984;2023-12-28T00:40:22;36.70;;;15.70;;
54923;SDS011;40825;52.270;20.984;2023-12-28T00:42:48;33.80;;;14.40;;
54923;SDS011;40825;52.270;20.984;2023-12-28T00:45:14;31.40;;;14.30;;
54923;SDS011;40825;52.270;20.984;2023-12-28T00:47:39;33.90;;;14.10;;
54923;SDS011;40825;52.270;20.984;2023-12-28T00:50:05;35.00;;;15.00;;
54923;SDS011;40825;52.270;20.984;2023-12-28T00:52:31;31.60;;;13.50;;
54923;SDS011;40825;52.270;20.984;2023-12-28T00:54:56;36.20;;;14.70;;
54923;SDS011;40825;52.270;20.984;2023-12-28T00:57:22;31.90;;;13.80;;
54923;SDS011;40825;52.270;20.984;2023-12-28T00:59:47;31.30;;;14.70;;
54923;SDS011;40825;52.270;20.984;2023-12-28T01:02:12;38.00;;;16.10;;
54923;SDS011;40825;52.270;20.984;2023-12-28T01:04:38;33.30;;;15.10;;
54923;SDS011;40825;52.270;20.984;2023-12-28T01:07:03;34.00;;;14.30;;
54923;SDS011;40825;52.270;20.984;2023-12-28T01:09:31;34.30;;;14.70;;
54923;SDS011;40825;52.270;20.984;2023-12-28T01:11:57;34.40;;;14.80;;
54923;SDS011;40825;52.270;20.984;2023-12-28T01:14:24;34.00;;;15.20;;
54923;SDS011;40825;52.270;20.984;2023-12-28T01:16:49;33.40;;;14.60;;
54923;SDS011;40825;52.270;20.984;2023-12-28T01:19:14;31.40;;;13.20;;
54923;SDS011;40825;52.270;20.984;2023-12-28T01:21:40;38.10;;;14.60;;
54923;SDS011;40825;52.270;20.984;2023-12-28T01:24:05;30.00;;;14.10;;
54923;SDS011;40825;52.270;20.984;2023-12-28T01:26:31;32.30;;;13.50;;
54923;SDS011;40825;52.270;20.984;2023-12-28T01:28:56;30.10;;;13.70;;
54923;SDS011;40825;52.270;20.984;2023-12-28T01:31:22;32.80;;;16.10;;
54923;SDS011;40825;52.270;20.984;2023-12-28T01:33:47;35.10;;;13.20;;
54923;SDS011;40825;52.270;20.984;2023-12-28T01:38:47;27.10;;;11.80;;
54923;SDS011;40825;52.270;20.984;2023-12-28T01:41:13;29.50;;;12.60;;
54923;SDS011;40825;52.270;20.984;2023-12-28T01:43:43;31.80;;;13.20;;
54923;SDS011;40825;52.270;20.984;2023-12-28T01:46:10;27.00;;;12.20;;
54923;SDS011;40825;52.270;20.984;2023-12-28T01:48:42;30.00;;;12.70;;
54923;SDS011;40825;52.270;20.984;2023-12-28T01:51:13;28.20;;;11.90;;
54923;SDS011;40825;52.270;20.984;2023-12-28T01:53:40;26.10;;;11.60;;
54923;SDS011;40825;52.270;20.984;2023-12-28T01:56:06;29.30;;;11.50;;
54923;SDS011;40825;52.270;20.984;2023-12-28T01:58:32;32.20;;;12.80;;
54923;SDS011;40825;52.270;20.984;2023-12-28T02:01:00;26.80;;;11.70;;
54923;SDS011;40825;52.270;20.984;2023-12-28T02:03:26;29.40;;;11.50;;
54923;SDS011;40825;52.270;20.984;2023-12-28T02:05:52;26.80;;;11.40;;
54923;SDS011;40825;52.270;20.984;2023-12-28T02:08:17;31.20;;;11.80;;
54923;SDS011;40825;52.270;20.984;2023-12-28T02:10:43;25.00;;;10.60;;
54923;SDS011;40825;52.270;20.984;2023-12-28T02:13:09;28.50;;;13.10;;
54923;SDS011;40825;52.270;20.984;2023-12-28T02:15:35;28.70;;;10.70;;
54923;SDS011;40825;52.270;20.984;2023-12-28T02:18:11;30.60;;;11.60;;
54923;SDS011;40825;52.270;20.984;2023-12-28T02:20:39;25.70;;;10.50;;
54923;SDS011;40825;52.270;20.984;2023-12-28T02:23:05;26.80;;;10.40;;
54923;SDS011;40825;52.270;20.984;2023-12-28T02:25:32;24.40;;;11.50;;
54923;SDS011;40825;52.270;20.984;2023-12-28T02:28:00;22.90;;;10.40;;
54923;SDS011;40825;52.270;20.984;2023-12-28T02:30:25;22.50;;;9.00;;
54923;SDS011;40825;52.270;20.984;2023-12-28T02:38:12;27.40;;;10.30;;
54923;SDS011;40825;52.270;20.984;2023-12-28T02:40:40;23.90;;;9.20;;
54923;SDS011;40825;52.270;20.984;2023-12-28T02:43:08;19.80;;;8.70;;
54923;SDS011;40825;52.270;20.984;2023-12-28T02:45:34;22.70;;;8.50;;
54923;SDS011;40825;52.270;20.984;2023-12-28T02:48:00;17.80;;;6.90;;
54923;SDS011;40825;52.270;20.984;2023-12-28T02:50:26;21.10;;;7.20;;
54923;SDS011;40825;52.270;20.984;2023-12-28T02:52:52;21.40;;;7.80;;
54923;SDS011;40825;52.270;20.984;2023-12-28T02:55:17;20.10;;;7.60;;
54923;SDS011;40825;52.270;20.984;2023-12-28T02:57:43;24.90;;;6.90;;
54923;SDS011;40825;52.270;20.984;2023-12-28T03:00:10;21.20;;;7.00;;
54923;SDS011;40825;52.270;20.984;2023-12-28T03:02:36;21.20;;;6.70;;
54923;SDS011;40825;52.270;20.984;2023-12-28T03:05:03;19.00;;;7.10;;
54923;SDS011;40825;52.270;20.984;2023-12-28T03:07:29;16.30;;;6.60;;
54923;SDS011;40825;52.270;20.984;2023-12-28T03:09:55;18.60;;;7.10;;
54923;SDS011;40825;52.270;20.984;2023-12-28T03:12:20;15.90;;;6.90;;
54923;SDS011;40825;52.270;20.984;2023-12-28T03:14:46;21.30;;;7.30;;
54923;SDS011;40825;52.270;20.984;2023-12-28T03:17:11;16.90;;;7.10;;
54923;SDS011;40825;52.270;20.984;2023-12-28T03:19:37;20.20;;;8.00;;
54923;SDS011;40825;52.270;20.984;2023-12-28T03:22:03;23.00;;;8.90;;
54923;SDS011;40825;52.270;20.984;2023-12-28T03:24:28;18.50;;;6.20;;
54923;SDS011;40825;52.270;20.984;2023-12-28T03:26:54;16.90;;;6.70;;
54923;SDS011;40825;52.270;20.984;2023-12-28T03:29:19;20.20;;;7.80;;
54923;SDS011;40825;52.270;20.984;2023-12-28T03:31:45;19.50;;;7.00;;
54923;SDS011;40825;52.270;20.984;2023-12-28T03:34:11;21.50;;;6.60;;
54923;SDS011;40825;52.270;20.984;2023-12-28T03:36:36;19.40;;;6.70;;
54923;SDS011;40825;52.270;20.984;2023-12-28T03:39:02;18.70;;;6.00;;
54923;SDS011;40825;52.270;20.984;2023-12-28T03:41:28;22.20;;;7.10;;
54923;SDS011;40825;52.270;20.984;2023-12-28T03:43:54;14.60;;;6.10;;
54923;SDS011;40825;52.270;20.984;2023-12-28T03:46:20;15.30;;;6.50;;
54923;SDS011;40825;52.270;20.984;2023-12-28T03:48:48;17.80;;;6.20;;
54923;SDS011;40825;52.270;20.984;2023-12-28T03:51:14;17.30;;;8.30;;
54923;SDS011;40825;52.270;20.984;2023-12-28T03:53:40;19.00;;;8.30;;
54923;SDS011;40825;52.270;20.984;2023-12-28T03:56:06;18.90;;;6.70;;
54923;SDS011;40825;52.270;20.984;2023-12-28T03:58:32;19.70;;;7.90;;
54923;SDS011;40825;52.270;20.984;2023-12-28T04:00:57;18.50;;;7.00;;
54923;SDS011;40825;52.270;20.984;2023-12-28T04:03:23;20.00;;;7.50;;
54923;SDS011;40825;52.270;20.984;2023-12-28T04:05:48;22.50;;;8.20;;
54923;SDS011;40825;52.270;20.984;2023-12-28T04:08:14;20.20;;;8.50;;
54923;SDS011;40825;52.270;20.984;2023-12-28T04:10:39;20.40;;;8.10;;
54923;SDS011;40825;52.270;20.984;2023-12-28T04:13:05;18.70;;;5.70;;
54923;SDS011;40825;52.270;20.984;2023-12-28T04:15:30;19.20;;;7.30;;
54923;SDS011;40825;52.270;20.984;2023-12-28T04:17:56;19.70;;;7.00;;
54923;SDS011;40825;52.270;20.984;2023-12-28T04:20:23;20.00;;;7.30;;
54923;SDS011;40825;52.270;20.984;2023-12-28T04:22:48;18.20;;;6.70;;
54923;SDS011;40825;52.270;20.984;2023-12-28T04:25:14;19.30;;;6.00;;
54923;SDS011;40825;52.270;20.984;2023-12-28T04:27:41;20.60;;;6.60;;
54923;SDS011;40825;52.270;20.984;2023-12-28T04:30:11;16.70;;;7.10;;
54923;SDS011;40825;52.270;20.984;2023-12-28T04:32:37;15.10;;;5.50;;
54923;SDS011;40825;52.270;20.984;2023-12-28T04:35:03;17.20;;;6.40;;
54923;SDS011;40825;52.270;20.984;2023-12-28T04:37:28;19.00;;;6.90;;
54923;SDS011;40825;52.270;20.984;2023-12-28T04:39:55;15.10;;;6.10;;
54923;SDS011;40825;52.270;20.984;2023-12-28T04:42:22;18.10;;;6.20;;
54923;SDS011;40825;52.270;20.984;2023-12-28T04:44:47;17.10;;;6.00;;
54923;SDS011;40825;52.270;20.984;2023-12-28T04:47:31;14.80;;;5.60;;
54923;SDS011;40825;52.270;20.984;2023-12-28T04:49:57;13.40;;;5.00;;
54923;SDS011;40825;52.270;20.984;2023-12-28T04:52:22;16.70;;;5.60;;
54923;SDS011;40825;52.270;20.984;2023-12-28T04:54:48;13.30;;;5.40;;
54923;SDS011;40825;52.270;20.984;2023-12-28T04:57:13;13.80;;;5.80;;
54923;SDS011;40825;52.270;20.984;2023-12-28T04:59:39;14.40;;;6.10;;
54923;SDS011;40825;52.270;20.984;2023-12-28T05:02:05;16.60;;;5.40;;
54923;SDS011;40825;52.270;20.984;2023-12-28T05:04:30;15.00;;;6.00;;
54923;SDS011;40825;52.270;20.984;2023-12-28T05:06:56;14.30;;;5.20;;
54923;SDS011;40825;52.270;20.984;2023-12-28T05:09:21;15.50;;;5.10;;
54923;SDS011;40825;52.270;20.984;2023-12-28T05:11:46;16.10;;;5.50;;
54923;SDS011;40825;52.270;20.984;2023-12-28T05:14:12;15.20;;;5.70;;
54923;SDS011;40825;52.270;20.984;2023-12-28T05:16:37;15.00;;;5.60;;
54923;SDS011;40825;52.270;20.984;2023-12-28T05:19:03;15.70;;;5.70;;
54923;SDS011;40825;52.270;20.984;2023-12-28T05:21:29;15.10;;;5.80;;
54923;SDS011;40825;52.270;20.984;2023-12-28T05:23:54;14.60;;;5.90;;
54923;SDS011;40825;52.270;20.984;2023-12-28T05:26:19;16.10;;;5.50;;
54923;SDS011;40825;52.270;20.984;2023-12-28T05:28:45;14.50;;;5.40;;
54923;SDS011;40825;52.270;20.984;2023-12-28T05:31:10;15.90;;;5.50;;
54923;SDS011;40825;52.270;20.984;2023-12-28T05:33:36;12.60;;;5.30;;
54923;SDS011;40825;52.270;20.984;2023-12-28T05:36:01;16.50;;;5.50;;
54923;SDS011;40825;52.270;20.984;2023-12-28T05:38:27;15.20;;;5.50;;
54923;SDS011;40825;52.270;20.984;2023-12-28T05:40:52;14.00;;;4.90;;
54923;SDS011;40825;52.270;20.984;2023-12-28T05:43:18;13.60;;;5.80;;
54923;SDS011;40825;52.270;20.984;2023-12-28T05:45:43;15.30;;;5.70;;
54923;SDS011;40825;52.270;20.984;2023-12-28T05:48:08;14.20;;;5.60;;
54923;SDS011;40825;52.270;20.984;2023-12-28T05:50:34;17.60;;;6.00;;
54923;SDS011;40825;52.270;20.984;2023-12-28T05:52:59;16.30;;;6.40;;
54923;SDS011;40825;52.270;20.984;2023-12-28T05:55:25;16.10;;;5.30;;
54923;SDS011;40825;52.270;20.984;2023-12-28T05:57:50;13.20;;;5.30;;
54923;SDS011;40825;52.270;20.984;2023-12-28T06:00:16;15.20;;;5.30;;
54923;SDS011;40825;52.270;20.984;2023-12-28T06:02:41;16.40;;;6.10;;
54923;SDS011;40825;52.270;20.984;2023-12-28T06:05:07;15.30;;;6.00;;
54923;SDS011;40825;52.270;20.984;2023-12-28T06:07:32;15.40;;;6.20;;
54923;SDS011;40825;52.270;20.984;2023-12-28T06:09:58;14.80;;;6.00;;
54923;SDS011;40825;52.270;20.984;2023-12-28T06:12:24;13.70;;;5.80;;
54923;SDS011;40825;52.270;20.984;2023-12-28T06:14:49;15.90;;;5.60;;
54923;SDS011;40825;52.270;20.984;2023-12-28T06:17:15;17.60;;;6.30;;
54923;SDS011;40825;52.270;20.984;2023-12-28T06:19:41;16.70;;;5.70;;
54923;SDS011;40825;52.270;20.984;2023-12-28T06:22:07;14.00;;;5.30;;
54923;SDS011;40825;52.270;20.984;2023-12-28T06:24:32;16.50;;;6.20;;
54923;SDS011;40825;52.270;20.984;2023-12-28T06:26:58;14.50;;;5.50;;
54923;SDS011;40825;52.270;20.984;2023-12-28T06:29:23;15.50;;;6.00;;
54923;SDS011;40825;52.270;20.984;2023-12-28T06:31:49;17.30;;;6.40;;
54923;SDS011;40825;52.270;20.984;2023-12-28T06:34:15;16.00;;;6.00;;
54923;SDS011;40825;52.270;20.984;2023-12-28T06:36:40;14.20;;;6.20;;
54923;SDS011;40825;52.270;20.984;2023-12-28T06:39:06;16.40;;;5.90;;
54923;SDS011;40825;52.270;20.984;2023-12-28T06:41:31;14.80;;;5.70;;
54923;SDS011;40825;52.270;20.984;2023-12-28T06:43:56;16.30;;;6.40;;
54923;SDS011;40825;52.270;20.984;2023-12-28T06:46:22;18.50;;;6.40;;
54923;SDS011;40825;52.270;20.984;2023-12-28T06:48:47;14.50;;;6.00;;
54923;SDS011;40825;52.270;20.984;2023-12-28T06:51:17;16.90;;;7.40;;
54923;SDS011;40825;52.270;20.984;2023-12-28T06:53:43;18.30;;;6.40;;
54923;SDS011;40825;52.270;20.984;2023-12-28T06:56:09;15.20;;;5.70;;
54923;SDS011;40825;52.270;20.984;2023-12-28T06:58:35;15.00;;;6.40;;
54923;SDS011;40825;52.270;20.984;2023-12-28T07:01:02;10.80;;;5.10;;
54923;SDS011;40825;52.270;20.984;2023-12-28T07:03:29;16.40;;;6.40;;
54923;SDS011;40825;52.270;20.984;2023-12-28T07:05:57;13.90;;;6.60;;
54923;SDS011;40825;52.270;20.984;2023-12-28T07:08:26;14.80;;;5.70;;
54923;SDS011;40825;52.270;20.984;2023-12-28T07:10:52;17.30;;;7.10;;
54923;SDS011;40825;52.270;20.984;2023-12-28T07:13:17;17.20;;;6.40;;
54923;SDS011;40825;52.270;20.984;2023-12-28T07:15:43;17.70;;;6.30;;
54923;SDS011;40825;52.270;20.984;2023-12-28T07:18:08;20.60;;;7.20;;
54923;SDS011;40825;52.270;20.984;2023-12-28T07:20:34;17.50;;;6.20;;
54923;SDS011;40825;52.270;20.984;2023-12-28T07:22:59;14.70;;;6.50;;
54923;SDS011;40825;52.270;20.984;2023-12-28T07:25:25;18.60;;;6.50;;
54923;SDS011;40825;52.270;20.984;2023-12-28T07:27:50;17.00;;;6.40;;
54923;SDS011;40825;52.270;20.984;2023-12-28T07:30:16;15.00;;;6.70;;
54923;SDS011;40825;52.270;20.984;2023-12-28T07:32:42;15.00;;;6.20;;
54923;SDS011;40825;52.270;20.984;2023-12-28T07:35:08;18.00;;;6.80;;
54923;SDS011;40825;52.270;20.984;2023-12-28T07:37:34;15.30;;;6.50;;
54923;SDS011;40825;52.270;20.984;2023-12-28T07:40:00;15.60;;;6.60;;
54923;SDS011;40825;52.270;20.984;2023-12-28T07:42:26;15.50;;;7.00;;
54923;SDS011;40825;52.270;20.984;2023-12-28T07:44:52;16.20;;;7.40;;
54923;SDS011;40825;52.270;20.984;2023-12-28T07:47:17;17.70;;;6.90;;
54923;SDS011;40825;52.270;20.984;2023-12-28T07:49:43;18.70;;;7.90;;
54923;SDS011;40825;52.270;20.984;2023-12-28T07:52:08;17.00;;;7.00;;
54923;SDS011;40825;52.270;20.984;2023-12-28T07:54:34;19.40;;;6.70;;
54923;SDS011;40825;52.270;20.984;2023-12-28T07:56:59;18.30;;;6.80;;
54923;SDS011;40825;52.270;20.984;2023-12-28T07:59:25;17.40;;;6.10;;
54923;SDS011;40825;52.270;20.984;2023-12-28T08:01:50;18.00;;;7.30;;
54923;SDS011;40825;52.270;20.984;2023-12-28T08:04:16;18.10;;;7.10;;
54923;SDS011;40825;52.270;20.984;2023-12-28T08:06:41;16.90;;;6.90;;
54923;SDS011;40825;52.270;20.984;2023-12-28T08:09:07;15.60;;;6.70;;
54923;SDS011;40825;52.270;20.984;2023-12-28T08:11:34;16.60;;;6.70;;
54923;SDS011;40825;52.270;20.984;2023-12-28T08:13:59;20.10;;;6.90;;
54923;SDS011;40825;52.270;20.984;2023-12-28T08:16:25;16.40;;;5.80;;
54923;SDS011;40825;52.270;20.984;2023-12-28T08:18:51;18.80;;;7.50;;
54923;SDS011;40825;52.270;20.984;2023-12-28T08:21:17;19.70;;;8.80;;
54923;SDS011;40825;52.270;20.984;2023-12-28T08:23:42;15.30;;;7.10;;
54923;SDS011;40825;52.270;20.984;2023-12-28T08:26:08;19.30;;;8.50;;
54923;SDS011;40825;52.270;20.984;2023-12-28T08:28:33;15.80;;;7.30;;
54923;SDS011;40825;52.270;20.984;2023-12-28T08:30:59;15.80;;;6.60;;
54923;SDS011;40825;52.270;20.984;2023-12-28T08:33:24;15.10;;;6.80;;
54923;SDS011;40825;52.270;20.984;2023-12-28T08:35:50;15.10;;;7.10;;
54923;SDS011;40825;52.270;20.984;2023-12-28T08:38:16;18.50;;;8.00;;
54923;SDS011;40825;52.270;20.984;2023-12-28T08:40:41;17.90;;;7.60;;
54923;SDS011;40825;52.270;20.984;2023-12-28T08:43:07;16.40;;;8.50;;
54923;SDS011;40825;52.270;20.984;2023-12-28T08:45:32;16.80;;;7.50;;
54923;SDS011;40825;52.270;20.984;2023-12-28T08:48:02;15.80;;;6.90;;
54923;SDS011;40825;52.270;20.984;2023-12-28T08:50:28;20.10;;;8.30;;
54923;SDS011;40825;52.270;20.984;2023-12-28T08:52:53;20.80;;;7.80;;
54923;SDS011;40825;52.270;20.984;2023-12-28T08:55:19;17.50;;;6.60;;
54923;SDS011;40825;52.270;20.984;2023-12-28T08:57:44;18.50;;;7.20;;
54923;SDS011;40825;52.270;20.984;2023-12-28T09:00:10;15.90;;;7.50;;
54923;SDS011;40825;52.270;20.984;2023-12-28T09:02:36;17.80;;;6.70;;
54923;SDS011;40825;52.270;20.984;2023-12-28T09:05:02;16.80;;;7.50;;
54923;SDS011;40825;52.270;20.984;2023-12-28T09:07:28;20.80;;;8.30;;
54923;SDS011;40825;52.270;20.984;2023-12-28T09:09:53;16.40;;;6.30;;
54923;SDS011;40825;52.270;20.984;2023-12-28T09:12:19;16.00;;;6.40;;
54923;SDS011;40825;52.270;20.984;2023-12-28T09:14:44;23.70;;;9.30;;
54923;SDS011;40825;52.270;20.984;2023-12-28T09:17:10;17.90;;;7.70;;
54923;SDS011;40825;52.270;20.984;2023-12-28T09:19:36;16.50;;;7.10;;
54923;SDS011;40825;52.270;20.984;2023-12-28T09:22:03;17.30;;;7.30;;
54923;SDS011;40825;52.270;20.984;2023-12-28T09:24:29;17.70;;;6.80;;
54923;SDS011;40825;52.270;20.984;2023-12-28T09:26:54;16.30;;;6.40;;
54923;SDS011;40825;52.270;20.984;2023-12-28T09:29:20;15.30;;;6.10;;
54923;SDS011;40825;52.270;20.984;2023-12-28T09:31:45;13.30;;;6.10;;
54923;SDS011;40825;52.270;20.984;2023-12-28T09:34:11;12.80;;;5.50;;
54923;SDS011;40825;52.270;20.984;2023-12-28T09:36:36;14.20;;;5.10;;
54923;SDS011;40825;52.270;20.984;2023-12-28T09:39:02;11.70;;;5.20;;
54923;SDS011;40825;52.270;20.984;2023-12-28T09:41:30;13.10;;;4.90;;
54923;SDS011;40825;52.270;20.984;2023-12-28T09:44:12;11.60;;;4.40;;
54923;SDS011;40825;52.270;20.984;2023-12-28T09:46:41;12.90;;;5.00;;
54923;SDS011;40825;52.270;20.984;2023-12-28T09:49:08;10.00;;;4.80;;
54923;SDS011;40825;52.270;20.984;2023-12-28T09:51:34;12.90;;;5.00;;
54923;SDS011;40825;52.270;20.984;2023-12-28T09:54:00;10.10;;;4.10;;
54923;SDS011;40825;52.270;20.984;2023-12-28T09:56:28;13.30;;;4.60;;
54923;SDS011;40825;52.270;20.984;2023-12-28T09:58:54;13.30;;;4.80;;
54923;SDS011;40825;52.270;20.984;2023-12-28T10:01:21;10.20;;;4.00;;
54923;SDS011;40825;52.270;20.984;2023-12-28T10:03:47;12.50;;;4.90;;
54923;SDS011;40825;52.270;20.984;2023-12-28T10:06:13;12.60;;;5.80;;
54923;SDS011;40825;52.270;20.984;2023-12-28T10:08:46;11.90;;;5.00;;
54923;SDS011;40825;52.270;20.984;2023-12-28T10:11:17;12.60;;;4.70;;
54923;SDS011;40825;52.270;20.984;2023-12-28T10:13:43;12.60;;;5.70;;
54923;SDS011;40825;52.270;20.984;2023-12-28T10:16:10;11.00;;;4.30;;
54923;SDS011;40825;52.270;20.984;2023-12-28T10:18:40;11.60;;;4.90;;
54923;SDS011;40825;52.270;20.984;2023-12-28T10:21:07;10.80;;;4.40;;
54923;SDS011;40825;52.270;20.984;2023-12-28T10:23:33;12.40;;;5.20;;
54923;SDS011;40825;52.270;20.984;2023-12-28T10:25:59;13.90;;;5.00;;
54923;SDS011;40825;52.270;20.984;2023-12-28T10:28:25;16.30;;;4.80;;
54923;SDS011;40825;52.270;20.984;2023-12-28T10:30:54;11.80;;;4.90;;
54923;SDS011;40825;52.270;20.984;2023-12-28T10:33:22;11.80;;;5.80;;
54923;SDS011;40825;52.270;20.984;2023-12-28T10:35:49;11.50;;;4.80;;
54923;SDS011;40825;52.270;20.984;2023-12-28T10:38:16;11.10;;;5.40;;
54923;SDS011;40825;52.270;20.984;2023-12-28T10:40:42;10.60;;;4.90;;
54923;SDS011;40825;52.270;20.984;2023-12-28T10:43:11;11.80;;;5.40;;
54923;SDS011;40825;52.270;20.984;2023-12-28T10:45:39;11.80;;;5.10;;
54923;SDS011;40825;52.270;20.984;2023-12-28T10:48:05;12.50;;;5.30;;
54923;SDS011;40825;52.270;20.984;2023-12-28T10:50:38;12.00;;;5.30;;
54923;SDS011;40825;52.270;20.984;2023-12-28T10:53:20;13.90;;;4.80;;
54923;SDS011;40825;52.270;20.984;2023-12-28T10:55:53;13.10;;;5.00;;
54923;SDS011;40825;52.270;20.984;2023-12-28T11:06:59;10.80;;;4.20;;
54923;SDS011;40825;52.270;20.984;2023-12-28T11:09:27;12.50;;;4.40;;
54923;SDS011;40825;52.270;20.984;2023-12-28T11:16:49;9.70;;;4.00;;
54923;SDS011;40825;52.270;20.984;2023-12-28T11:19:16;10.70;;;4.40;;
54923;SDS011;40825;52.270;20.984;2023-12-28T11:21:42;10.60;;;4.40;;
54923;SDS011;40825;52.270;20.984;2023-12-28T11:24:08;11.10;;;3.80;;
54923;SDS011;40825;52.270;20.984;2023-12-28T11:26:33;10.70;;;4.10;;
54923;SDS011;40825;52.270;20.984;2023-12-28T11:29:00;10.40;;;4.10;;
54923;SDS011;40825;52.270;20.984;2023-12-28T11:31:27;10.30;;;4.80;;
54923;SDS011;40825;52.270;20.984;2023-12-28T11:33:52;9.10;;;4.00;;
54923;SDS011;40825;52.270;20.984;2023-12-28T11:36:24;10.40;;;4.40;;
54923;SDS011;40825;52.270;20.984;2023-12-28T11:38:59;9.40;;;3.80;;
54923;SDS011;40825;52.270;20.984;2023-12-28T11:41:33;11.10;;;4.00;;
54923;SDS011;40825;52.270;20.984;2023-12-28T11:44:03;9.70;;;4.40;;
54923;SDS011;40825;52.270;20.984;2023-12-28T11:46:30;9.90;;;4.30;;
54923;SDS011;40825;52.270;20.984;2023-12-28T11:49:05;11.20;;;4.30;;
54923;SDS011;40825;52.270;20.984;2023-12-28T11:51:31;9.70;;;3.80;;
54923;SDS011;40825;52.270;20.984;2023-12-28T11:53:57;13.00;;;3.90;;
54923;SDS011;40825;52.270;20.984;2023-12-28T11:56:24;10.10;;;4.30;;
54923;SDS011;40825;52.270;20.984;2023-12-28T11:58:51;10.30;;;4.20;;
54923;SDS011;40825;52.270;20.984;2023-12-28T12:01:17;11.30;;;4.50;;
54923;SDS011;40825;52.270;20.984;2023-12-28T12:03:42;11.70;;;4.70;;
54923;SDS011;40825;52.270;20.984;2023-12-28T12:06:08;10.00;;;4.30;;
54923;SDS011;40825;52.270;20.984;2023-12-28T12:08:34;10.20;;;4.60;;
54923;SDS011;40825;52.270;20.984;2023-12-28T12:11:01;11.30;;;4.10;;
54923;SDS011;40825;52.270;20.984;2023-12-28T12:13:29;10.50;;;4.20;;
54923;SDS011;40825;52.270;20.984;2023-12-28T12:15:55;11.90;;;4.30;;
54923;SDS011;40825;52.270;20.984;2023-12-28T12:18:22;10.90;;;4.60;;
54923;SDS011;40825;52.270;20.984;2023-12-28T12:20:48;9.10;;;4.50;;
54923;SDS011;40825;52.270;20.984;2023-12-28T12:23:15;11.20;;;4.70;;
54923;SDS011;40825;52.270;20.984;2023-12-28T12:25:40;11.70;;;4.60;;
54923;SDS011;40825;52.270;20.984;2023-12-28T12:28:06;9.20;;;3.70;;
54923;SDS011;40825;52.270;20.984;2023-12-28T12:30:32;9.00;;;4.10;;
54923;SDS011;40825;52.270;20.984;2023-12-28T12:32:58;11.00;;;4.00;;
54923;SDS011;40825;52.270;20.984;2023-12-28T12:35:24;11.50;;;5.10;;
54923;SDS011;40825;52.270;20.984;2023-12-28T12:37:50;9.90;;;4.10;;
54923;SDS011;40825;52.270;20.984;2023-12-28T12:40:16;9.20;;;3.90;;
54923;SDS011;40825;52.270;20.984;2023-12-28T12:42:51;11.50;;;4.20;;
54923;SDS011;40825;52.270;20.984;2023-12-28T12:45:19;8.80;;;4.10;;
54923;SDS011;40825;52.270;20.984;2023-12-28T12:47:46;11.00;;;4.00;;
54923;SDS011;40825;52.270;20.984;2023-12-28T12:50:11;11.10;;;5.00;;
54923;SDS011;40825;52.270;20.984;2023-12-28T12:52:37;9.70;;;4.00;;
54923;SDS011;40825;52.270;20.984;2023-12-28T12:55:03;9.30;;;3.90;;
54923;SDS011;40825;52.270;20.984;2023-12-28T12:57:29;12.00;;;4.20;;
54923;SDS011;40825;52.270;20.984;2023-12-28T12:59:55;10.20;;;4.60;;
54923;SDS011;40825;52.270;20.984;2023-12-28T13:02:24;8.90;;;4.00;;
54923;SDS011;40825;52.270;20.984;2023-12-28T13:04:52;10.30;;;3.80;;
54923;SDS011;40825;52.270;20.984;2023-12-28T13:09:46;9.20;;;3.40;;
54923;SDS011;40825;52.270;20.984;2023-12-28T13:12:12;9.20;;;3.60;;
54923;SDS011;40825;52.270;20.984;2023-12-28T13:14:37;13.50;;;3.40;;
54923;SDS011;40825;52.270;20.984;2023-12-28T13:17:03;9.80;;;3.30;;
54923;SDS011;40825;52.270;20.984;2023-12-28T13:19:28;8.60;;;3.70;;
54923;SDS011;40825;52.270;20.984;2023-12-28T13:21:54;12.00;;;3.70;;
54923;SDS011;40825;52.270;20.984;2023-12-28T13:24:19;10.20;;;4.60;;
54923;SDS011;40825;52.270;20.984;2023-12-28T13:26:45;8.60;;;3.60;;
54923;SDS011;40825;52.270;20.984;2023-12-28T13:29:10;10.10;;;3.30;;
54923;SDS011;40825;52.270;20.984;2023-12-28T13:31:36;8.60;;;3.30;;
54923;SDS011;40825;52.270;20.984;2023-12-28T13:34:01;9.70;;;3.60;;
54923;SDS011;40825;52.270;20.984;2023-12-28T13:36:27;8.50;;;3.00;;
54923;SDS011;40825;52.270;20.984;2023-12-28T13:38:53;10.40;;;3.50;;
54923;SDS011;40825;52.270;20.984;2023-12-28T13:41:19;10.40;;;3.40;;
54923;SDS011;40825;52.270;20.984;2023-12-28T13:43:44;8.10;;;3.60;;
54923;SDS011;40825;52.270;20.984;2023-12-28T13:46:10;9.30;;;3.90;;
54923;SDS011;40825;52.270;20.984;2023-12-28T13:48:36;8.40;;;3.90;;
54923;SDS011;40825;52.270;20.984;2023-12-28T13:51:04;7.90;;;3.60;;
54923;SDS011;40825;52.270;20.984;2023-12-28T13:53:30;11.20;;;4.10;;
54923;SDS011;40825;52.270;20.984;2023-12-28T13:58:24;8.20;;;3.40;;
54923;SDS011;40825;52.270;20.984;2023-12-28T14:00:50;8.20;;;3.30;;
54923;SDS011;40825;52.270;20.984;2023-12-28T14:03:15;10.10;;;4.00;;
54923;SDS011;40825;52.270;20.984;2023-12-28T14:05:41;11.00;;;3.70;;
54923;SDS011;40825;52.270;20.984;2023-12-28T14:08:07;10.20;;;3.80;;
54923;SDS011;40825;52.270;20.984;2023-12-28T14:10:33;12.10;;;4.30;;
54923;SDS011;40825;52.270;20.984;2023-12-28T14:12:58;9.60;;;4.00;;
54923;SDS011;40825;52.270;20.984;2023-12-28T14:15:24;10.50;;;3.70;;
54923;SDS011;40825;52.270;20.984;2023-12-28T14:17:49;9.30;;;3.70;;
54923;SDS011;40825;52.270;20.984;2023-12-28T14:20:15;9.60;;;3.70;;
54923;SDS011;40825;52.270;20.984;2023-12-28T14:22:40;9.80;;;3.50;;
54923;SDS011;40825;52.270;20.984;2023-12-28T14:25:06;10.20;;;3.80;;
54923;SDS011;40825;52.270;20.984;2023-12-28T14:27:32;8.50;;;3.40;;
54923;SDS011;40825;52.270;20.984;2023-12-28T14:29:58;12.10;;;4.00;;
54923;SDS011;40825;52.270;20.984;2023-12-28T14:32:28;10.40;;;4.50;;
54923;SDS011;40825;52.270;20.984;2023-12-28T14:34:54;11.60;;;4.40;;
54923;SDS011;40825;52.270;20.984;2023-12-28T14:37:20;12.90;;;4.30;;
54923;SDS011;40825;52.270;20.984;2023-12-28T14:39:45;9.90;;;3.90;;
54923;SDS011;40825;52.270;20.984;2023-12-28T14:42:11;9.70;;;3.60;;